Newcastle, Texas
Current Conditions -  °F | °C
As of 10:10 AM on Wednesday 26 Nov 2014 (Local Time) from KRPH Reporting Station
Clear Clear  
Wind Chill: 54°   Ceiling: Unl
Heat Index: 54°   Visibility: 10mi
Dew Point: 33°   Wind: 17mph
Humidity: 45%   Direction: 360°N
Pressure: 30.18"   Gusts: 23mph
Location:  33.19°N, 98.74°W
Report Text: KRPH 261610Z AUTO 36015G20KT 10SM CLR 12/01 A3018 RMK AO2 T01210006
Loading
Personal Weather Stations






























Interactive Weather Map New forecast layout! Learn more

10-Day Weather Forecast

Advertisements
Track Severe Weather on mobile